| time (UTC) | temp F | wind direction | speed knots | gust knots | rain 1hr in | rain 24hr in | rain mn in | humidity % | barometer mb |
| 20260906204544 | 103 | 224 | 2.6 | 7.8 | 0.00 | 0.00 | 0.00 | 28 | 1012.6 |
| 20260906203049 | 103 | 193 | 1.7 | 6.1 | 0.00 | 0.00 | 0.00 | 28 | 1012.9 |
| 20260906201538 | 102 | 223 | 1.7 | 4.3 | 0.00 | 0.00 | 0.00 | 30 | 1013.0 |
| 20260906200043 | 102 | 260 | 2.6 | 6.1 | 0.00 | 0.00 | 0.00 | 30 | 1013.2 |
| 20260906194535 | 101 | 126 | 1.7 | 7.8 | 0.00 | 0.00 | 0.00 | 33 | 1013.5 |
| 20260906193058 | 100 | 225 | 2.6 | 6.1 | 0.00 | 0.00 | 0.00 | 34 | 1013.7 |
| 20260906191539 | 102 | 220 | 3.5 | 8.7 | 0.00 | 0.00 | 0.00 | 33 | 1013.9 |
| 20260906190033 | 101 | 227 | 1.7 | 6.1 | 0.00 | 0.00 | 0.00 | 33 | 1014.1 |
| 20260906184537 | 101 | 249 | 1.7 | 9.6 | 0.00 | 0.00 | 0.00 | 35 | 1014.2 |
| 20260906183030 | 100 | 217 | 0.9 | 7.0 | 0.00 | 0.00 | 0.00 | 36 | 1014.3 |
| 20260906181548 | 101 | 150 | 0.9 | 3.5 | 0.00 | 0.00 | 0.00 | 37 | 1014.7 |
| 20260906180033 | 100 | 202 | 2.6 | 6.1 | 0.00 | 0.00 | 0.00 | 38 | 1014.9 |
| 20260906174523 | 99 | 211 | 0.0 | 5.2 | 0.00 | 0.00 | 0.00 | 40 | 1015.1 |
| 20260906173022 | 98 | 219 | 1.7 | 7.0 | 0.00 | 0.00 | 0.00 | 40 | 1015.3 |
| 20260906171520 | 98 | 232 | 1.7 | 7.0 | 0.00 | 0.00 | 0.00 | 40 | 1015.7 |
| 20260906170020 | 98 | 231 | 1.7 | 6.1 | 0.00 | 0.00 | 0.00 | 40 | 1015.9 |
| 20260906164518 | 97 | 221 | 0.0 | 3.5 | 0.00 | 0.00 | 0.00 | 41 | 1016.0 |
| 20260906163014 | 96 | 236 | 0.0 | 2.6 | 0.00 | 0.00 | 0.00 | 43 | 1016.2 |
| 20260906161510 | 94 | 266 | 0.0 | 5.2 | 0.00 | 0.00 | 0.00 | 46 | 1016.1 |
| 20260906160008 | 94 | 243 | 0.0 | 3.5 | 0.00 | 0.00 | 0.00 | 47 | 1016.0 |
| 20260906154510 | 93 | 179 | 0.9 | 4.3 | 0.00 | 0.00 | 0.00 | 47 | 1015.9 |
| 20260906153059 | 92 | 259 | 0.9 | 3.5 | 0.00 | 0.00 | 0.00 | 48 | 1015.8 |
| 20260906151556 | 91 | 259 | 0.0 | 3.5 | 0.00 | 0.00 | 0.00 | 51 | 1015.8 |
| 20260906150052 | 89 | 266 | 0.9 | 3.5 | 0.00 | 0.00 | 0.00 | 54 | 1015.7 |
| 20260906144605 | 88 | 181 | 1.7 | 4.3 | 0.00 | 0.00 | 0.00 | 54 | 1015.7 |
| 20260906143044 | 87 | 205 | 0.9 | 2.6 | 0.00 | 0.00 | 0.00 | 56 | 1015.7 |
| 20260906141543 | 85 | 184 | 0.0 | 2.6 | 0.00 | 0.00 | 0.00 | 59 | 1015.7 |
| 20260906140042 | 84 | 200 | 0.9 | 3.5 | 0.00 | 0.00 | 0.00 | 60 | 1015.6 |
| 20260906134539 | 83 | 209 | 0.9 | 2.6 | 0.00 | 0.00 | 0.00 | 62 | 1015.4 |
| 20260906133046 | 80 | 202 | 0.0 | 0.9 | 0.00 | 0.00 | 0.00 | 67 | 1015.4 |
| 20260906131539 | 79 | 201 | 0.0 | 0.0 | 0.00 | 0.00 | 0.00 | 68 | 1015.4 |
| 20260906130042 | 78 | 202 | 0.0 | 0.0 | 0.00 | 0.00 | 0.00 | 69 | 1015.1 |
| 20260906124539 | 77 | 202 | 0.0 | 0.0 | 0.00 | 0.00 | 0.00 | 70 | 1015.0 |
| 20260906123035 | 77 | 201 | 0.0 | 0.0 | 0.00 | 0.00 | 0.00 | 69 | 1014.8 |
| 20260906121530 | 77 | 202 | 0.0 | 0.0 | 0.00 | 0.00 | 0.00 | 69 | 1014.7 |
| 20260906120028 | 78 | 202 | 0.0 | 0.0 | 0.00 | 0.00 | 0.00 | 68 | 1014.5 |
| 20260906114542 | 78 | 202 | 0.0 | 0.9 | 0.00 | 0.00 | 0.00 | 67 | 1014.4 |
| 20260906113025 | 78 | 202 | 0.0 | 0.0 | 0.00 | 0.00 | 0.00 | 67 | 1014.3 |
| 20260906111531 | 78 | 202 | 0.0 | 0.0 | 0.00 | 0.00 | 0.00 | 67 | 1014.1 |
| 20260906110021 | 78 | 202 | 0.0 | 0.0 | 0.00 | 0.00 | 0.00 | 67 | 1014.0 |
| 20260906104528 | 78 | 201 | 0.0 | 0.0 | 0.00 | 0.00 | 0.00 | 66 | 1013.9 |
| 20260906103020 | 78 | 202 | 0.0 | 0.0 | 0.00 | 0.00 | 0.00 | 67 | 1014.0 |
| 20260906101518 | 78 | 202 | 0.0 | 0.0 | 0.00 | 0.00 | 0.00 | 67 | 1013.8 |
| 20260906100016 | 79 | 202 | 0.0 | 0.0 | 0.00 | 0.00 | 0.00 | 64 | 1013.8 |
| 20260906094533 | 80 | 202 | 0.0 | 0.0 | 0.00 | 0.00 | 0.00 | 64 | 1013.8 |
| 20260906093018 | 80 | 202 | 0.0 | 0.0 | 0.00 | 0.00 | 0.00 | 62 | 1013.6 |
| 20260906091510 | 81 | 202 | 0.0 | 0.0 | 0.00 | 0.00 | 0.00 | 61 | 1013.7 |
| 20260906090013 | 81 | 201 | 0.0 | 0.0 | 0.00 | 0.00 | 0.00 | 60 | 1013.6 |
| 20260906084506 | 81 | 201 | 0.0 | 0.0 | 0.00 | 0.00 | 0.00 | 59 | 1013.6 |
| 20260906083003 | 82 | 202 | 0.0 | 0.0 | 0.00 | 0.00 | 0.00 | 57 | 1013.5 |
| 20260906081508 | 82 | 202 | 0.0 | 0.0 | 0.00 | 0.00 | 0.00 | 57 | 1013.5 |
| 20260906080105 | 83 | 202 | 0.0 | 0.0 | 0.00 | 0.00 | 0.00 | 56 | 1013.5 |
| 20260906080004 | 83 | 202 | 0.0 | 0.0 | 0.00 | 0.00 | 0.00 | 56 | 1013.5 |
| 20260906074559 | 83 | 202 | 0.0 | 0.0 | 0.00 | 0.00 | 0.00 | 55 | 1013.4 |
| 20260906073057 | 83 | 202 | 0.0 | 1.7 | 0.00 | 0.00 | 0.00 | 55 | 1013.5 |
| 20260906071554 | 84 | 202 | 0.0 | 0.0 | 0.00 | 0.00 | 0.00 | 54 | 1013.6 |
| 20260906070053 | 84 | 201 | 0.0 | 0.9 | 0.00 | 0.00 | 0.00 | 54 | 1013.5 |
| 20260906064552 | 84 | 202 | 0.0 | 2.6 | 0.00 | 0.00 | 0.00 | 53 | 1013.5 |
| 20260906063052 | 85 | 210 | 0.9 | 2.6 | 0.00 | 0.00 | 0.00 | 53 | 1013.5 |
| 20260906061549 | 85 | 210 | 0.0 | 1.7 | 0.00 | 0.00 | 0.00 | 52 | 1013.6 |
| 20260906060047 | 86 | 209 | 0.9 | 2.6 | 0.00 | 0.00 | 0.00 | 51 | 1013.6 |
| 20260906054549 | 86 | 189 | 0.9 | 2.6 | 0.00 | 0.00 | 0.00 | 51 | 1013.5 |
| 20260906053042 | 86 | 207 | 0.9 | 3.5 | 0.00 | 0.00 | 0.00 | 50 | 1013.4 |
| 20260906051550 | 87 | 200 | 0.9 | 3.5 | 0.00 | 0.00 | 0.00 | 49 | 1013.5 |
| 20260906050036 | 87 | 203 | 1.7 | 2.6 | 0.00 | 0.00 | 0.00 | 49 | 1013.2 |
| 20260906044534 | 87 | 210 | 0.9 | 2.6 | 0.00 | 0.00 | 0.00 | 48 | 1013.2 |
| 20260906043035 | 88 | 209 | 0.9 | 3.5 | 0.00 | 0.00 | 0.00 | 47 | 1013.4 |
| 20260906041536 | 88 | 207 | 0.0 | 3.5 | 0.00 | 0.00 | 0.00 | 47 | 1013.4 |
| 20260906040034 | 88 | 195 | 0.0 | 2.6 | 0.00 | 0.00 | 0.00 | 47 | 1013.4 |
| 20260906034533 | 88 | 162 | 0.0 | 3.5 | 0.00 | 0.00 | 0.00 | 47 | 1013.4 |
| 20260906033044 | 89 | 205 | 0.0 | 1.7 | 0.00 | 0.00 | 0.00 | 46 | 1013.3 |
| 20260906031538 | 89 | 203 | 0.9 | 2.6 | 0.00 | 0.00 | 0.00 | 46 | 1013.2 |
| 20260906030033 | 90 | 206 | 0.0 | 1.7 | 0.00 | 0.00 | 0.00 | 45 | 1013.3 |
| 20260906024544 | 90 | 169 | 0.0 | 2.6 | 0.00 | 0.00 | 0.00 | 45 | 1013.2 |
| 20260906023031 | 91 | 218 | 0.0 | 1.7 | 0.00 | 0.00 | 0.00 | 44 | 1013.0 |
| 20260906021531 | 91 | 221 | 0.0 | 2.6 | 0.00 | 0.00 | 0.00 | 43 | 1012.8 |
| 20260906020031 | 92 | 206 | 0.9 | 2.6 | 0.00 | 0.00 | 0.00 | 42 | 1012.7 |
| 20260906014540 | 93 | 177 | 0.0 | 0.9 | 0.00 | 0.00 | 0.00 | 41 | 1012.6 |
| 20260906013041 | 93 | 179 | 0.0 | 1.7 | 0.00 | 0.00 | 0.00 | 40 | 1012.4 |
| 20260906011529 | 94 | 178 | 0.0 | 2.6 | 0.00 | 0.00 | 0.00 | 39 | 1012.1 |
| 20260906010029 | 95 | 207 | 0.9 | 3.5 | 0.00 | 0.00 | 0.00 | 38 | 1012.1 |
| 20260906004528 | 96 | 212 | 0.9 | 2.6 | 0.00 | 0.00 | 0.00 | 37 | 1011.9 |
| 20260906003027 | 96 | 212 | 0.9 | 3.5 | 0.00 | 0.00 | 0.00 | 36 | 1011.8 |
| 20260906001526 | 97 | 236 | 0.9 | 6.1 | 0.00 | 0.00 | 0.00 | 35 | 1011.9 |
| 20260906000026 | 99 | 217 | 1.7 | 5.2 | 0.00 | 0.00 | 0.00 | 34 | 1011.7 |
| 20260905234525 | 99 | 220 | 0.9 | 5.2 | 0.00 | 0.00 | 0.00 | 34 | 1011.7 |
| 20260905233026 | 99 | 229 | 2.6 | 7.0 | 0.00 | 0.00 | 0.00 | 34 | 1011.5 |
| 20260905231525 | 100 | 205 | 0.9 | 6.1 | 0.00 | 0.00 | 0.00 | 33 | 1011.4 |
| 20260905230024 | 100 | 224 | 0.0 | 7.0 | 0.00 | 0.00 | 0.00 | 32 | 1011.5 |
| 20260905224524 | 100 | 204 | 0.9 | 7.0 | 0.00 | 0.00 | 0.00 | 33 | 1011.5 |
| 20260905223023 | 100 | 98 | 0.0 | 5.2 | 0.00 | 0.00 | 0.00 | 32 | 1011.4 |
| 20260905221522 | 100 | 110 | 1.7 | 7.0 | 0.00 | 0.00 | 0.00 | 31 | 1011.4 |
| 20260905220019 | 100 | 78 | 0.9 | 6.1 | 0.00 | 0.00 | 0.00 | 33 | 1011.5 |
| 20260905214522 | 100 | 243 | 2.6 | 8.7 | 0.00 | 0.00 | 0.00 | 33 | 1011.8 |
| 20260905213016 | 100 | 56 | 0.0 | 6.1 | 0.00 | 0.00 | 0.00 | 33 | 1011.9 |
| 20260905211516 | 100 | 239 | 0.9 | 4.3 | 0.00 | 0.00 | 0.00 | 33 | 1012.1 |
| 20260905210013 | 100 | 217 | 2.6 | 8.7 | 0.00 | 0.00 | 0.00 | 34 | 1012.2 |